createdAt,value
2023-03-26T00:01:36.775Z,91.42
2023-03-26T00:04:06.676Z,91.26
2023-03-26T00:06:39.626Z,92.51
2023-03-26T00:09:10.873Z,91.56
2023-03-26T00:11:37.966Z,91.84
2023-03-26T00:14:05.537Z,91.49
2023-03-26T00:16:33.116Z,91.81
2023-03-26T00:19:01.708Z,92.58
2023-03-26T00:21:30.720Z,92.28
2023-03-26T00:24:00.863Z,92.61
2023-03-26T00:26:31.045Z,92.78
2023-03-26T00:29:00.223Z,91.98
2023-03-26T00:31:27.505Z,92.42
2023-03-26T00:33:55.613Z,92.88
2023-03-26T00:36:25.748Z,91.99
2023-03-26T00:38:53.813Z,90.52
2023-03-26T00:41:25.768Z,90.63
2023-03-26T00:43:59.533Z,91.29
2023-03-26T00:46:29.475Z,92.28
2023-03-26T00:48:58.878Z,92.88
2023-03-26T00:51:27.791Z,93.47
2023-03-26T00:53:55.580Z,94.14
2023-03-26T00:56:22.521Z,94.65
2023-03-26T00:58:50.231Z,94.67
2023-03-26T01:01:27.714Z,94.06
2023-03-26T01:04:08.314Z,93.56
2023-03-26T01:06:41.869Z,94.18
2023-03-26T01:09:21.439Z,93.99
2023-03-26T01:11:49.640Z,93.40
2023-03-26T01:14:19.671Z,93.60
2023-03-26T01:16:55.138Z,93.79
2023-03-26T01:20:11.832Z,94.96
2023-03-26T01:22:46.043Z,93.81
2023-03-26T01:25:14.245Z,93.92
2023-03-26T01:27:55.914Z,94.31
2023-03-26T01:31:01.393Z,94.24
2023-03-26T01:33:45.533Z,94.00
2023-03-26T01:36:36.663Z,94.20
2023-03-26T01:39:27.938Z,93.56
2023-03-26T01:42:02.885Z,93.86
2023-03-26T01:44:44.861Z,94.21
2023-03-26T01:47:13.363Z,94.52
2023-03-26T01:49:40.373Z,93.84
2023-03-26T01:52:17.372Z,93.94
2023-03-26T01:54:46.634Z,94.33
2023-03-26T01:57:24.210Z,93.78
2023-03-26T02:00:16.306Z,93.30
2023-03-26T02:02:59.212Z,93.28
2023-03-26T02:05:56.692Z,92.84
2023-03-26T02:08:35.834Z,93.34
2023-03-26T02:11:13.234Z,92.70
2023-03-26T02:13:44.092Z,92.94
2023-03-26T02:16:16.539Z,92.58
2023-03-26T02:18:45.767Z,93.17
2023-03-26T02:21:20.255Z,93.68
2023-03-26T02:24:03.334Z,93.20
2023-03-26T02:26:35.721Z,92.67
2023-03-26T02:29:14.323Z,92.58
2023-03-26T02:31:44.641Z,92.89
2023-03-26T02:34:11.584Z,93.36
2023-03-26T02:36:43.033Z,93.28
2023-03-26T02:39:11.953Z,92.86
2023-03-26T02:41:39.131Z,93.74
2023-03-26T02:44:09.507Z,92.86
2023-03-26T02:47:11.742Z,93.17
2023-03-26T02:49:53.768Z,92.57
2023-03-26T02:52:49.806Z,92.57
2023-03-26T02:55:17.429Z,92.75
2023-03-26T02:57:45.686Z,91.45
2023-03-26T03:00:18.617Z,92.51
2023-03-26T03:02:47.976Z,92.83
2023-03-26T03:05:21.024Z,92.90
2023-03-26T03:07:58.000Z,92.91
2023-03-26T03:10:28.165Z,92.92
2023-03-26T03:13:18.501Z,93.15
2023-03-26T03:15:45.613Z,92.96
2023-03-26T03:18:12.424Z,92.83
2023-03-26T03:20:39.296Z,93.24
2023-03-26T03:23:06.287Z,93.73
2023-03-26T03:25:33.752Z,94.44
2023-03-26T03:28:01.285Z,94.63
2023-03-26T03:30:28.294Z,95.14
2023-03-26T03:33:24.098Z,95.44
2023-03-26T03:35:51.138Z,94.09
2023-03-26T03:38:19.256Z,95.02
2023-03-26T03:40:49.689Z,94.95
2023-03-26T03:43:17.190Z,95.17
2023-03-26T03:46:04.634Z,94.56
2023-03-26T03:48:38.199Z,94.87
2023-03-26T03:51:06.829Z,94.29
2023-03-26T03:53:57.510Z,94.43
2023-03-26T03:57:02.200Z,95.30
2023-03-26T03:59:29.120Z,94.86
2023-03-26T04:01:56.338Z,94.53
2023-03-26T04:04:32.920Z,94.24
2023-03-26T04:07:02.356Z,94.42
2023-03-26T04:09:40.321Z,94.45
2023-03-26T04:12:14.197Z,94.54
2023-03-26T04:14:51.666Z,93.70
2023-03-26T04:17:23.707Z,94.06
2023-03-26T04:19:54.954Z,95.04
2023-03-26T04:22:36.403Z,93.89
2023-03-26T04:25:07.615Z,94.24
2023-03-26T04:27:46.184Z,93.99
2023-03-26T04:30:24.765Z,94.72
2023-03-26T04:33:06.301Z,94.15
2023-03-26T04:35:37.577Z,93.77
2023-03-26T04:38:07.316Z,93.67
2023-03-26T04:40:39.599Z,93.58
2023-03-26T04:43:24.910Z,93.84
2023-03-26T04:46:13.200Z,93.75
2023-03-26T04:48:50.607Z,93.86
2023-03-26T04:51:20.129Z,94.44
2023-03-26T04:54:00.354Z,93.89
2023-03-26T04:56:39.550Z,94.02
2023-03-26T04:59:35.287Z,93.61
2023-03-26T05:02:06.528Z,93.63
2023-03-26T05:04:46.022Z,93.00
2023-03-26T05:07:20.005Z,92.56
2023-03-26T05:09:52.943Z,92.51
2023-03-26T05:12:25.847Z,93.18
2023-03-26T05:15:15.331Z,93.89
2023-03-26T05:18:04.647Z,93.09
2023-03-26T05:20:43.573Z,93.24
2023-03-26T05:23:10.892Z,93.42
2023-03-26T05:25:41.618Z,93.06
2023-03-26T05:28:24.226Z,93.65
2023-03-26T05:30:58.582Z,93.20
2023-03-26T05:33:28.772Z,93.37
2023-03-26T05:36:15.593Z,93.29
2023-03-26T05:38:47.756Z,93.20
2023-03-26T05:41:19.531Z,93.59
2023-03-26T05:43:48.943Z,93.27
2023-03-26T05:46:21.963Z,93.49
2023-03-26T05:48:49.920Z,94.01
2023-03-26T05:51:16.970Z,93.61
2023-03-26T05:53:54.944Z,93.43
2023-03-26T05:56:48.002Z,93.79
2023-03-26T05:59:53.742Z,94.29
2023-03-26T06:02:50.627Z,93.45
2023-03-26T06:05:23.884Z,93.17
2023-03-26T06:08:00.819Z,93.51
2023-03-26T06:10:39.373Z,93.71
2023-03-26T06:13:06.412Z,93.71
2023-03-26T06:15:36.235Z,92.99
2023-03-26T06:18:23.998Z,93.00
2023-03-26T06:21:09.505Z,93.63
2023-03-26T06:23:56.077Z,93.59
2023-03-26T06:26:43.187Z,92.81
2023-03-26T06:29:34.860Z,92.39
2023-03-26T06:32:20.105Z,92.93
2023-03-26T06:34:57.740Z,93.56
2023-03-26T06:37:24.632Z,92.37
2023-03-26T06:39:57.131Z,92.50
2023-03-26T06:43:09.397Z,92.28
2023-03-26T06:45:51.940Z,91.20
2023-03-26T06:48:37.811Z,91.81
2023-03-26T06:51:23.055Z,92.07
2023-03-26T06:54:08.319Z,91.77
2023-03-26T06:56:45.006Z,91.40
2023-03-26T06:59:35.348Z,91.31
2023-03-26T07:02:37.645Z,90.43
2023-03-26T07:05:23.402Z,89.93
2023-03-26T07:08:09.179Z,89.78
2023-03-26T07:10:55.055Z,90.04
2023-03-26T07:13:42.364Z,90.12
2023-03-26T07:16:27.871Z,87.84
2023-03-26T07:18:57.468Z,87.84
2023-03-26T07:21:30.421Z,87.86
2023-03-26T07:23:57.789Z,88.02
2023-03-26T07:27:03.966Z,86.65
2023-03-26T07:30:46.525Z,87.80
2023-03-26T07:33:58.766Z,86.55
2023-03-26T07:36:53.657Z,85.50
2023-03-26T07:39:58.071Z,85.36
2023-03-26T07:43:41.178Z,84.19
2023-03-26T07:46:14.241Z,85.06
2023-03-26T07:48:54.108Z,84.21
2023-03-26T07:51:39.685Z,86.40
2023-03-26T07:54:11.984Z,85.91
2023-03-26T07:57:03.528Z,85.64
2023-03-26T07:59:45.062Z,84.04
2023-03-26T08:03:05.896Z,84.81
2023-03-26T08:06:07.992Z,85.34
2023-03-26T08:09:28.709Z,85.66
2023-03-26T08:12:17.639Z,85.10
2023-03-26T08:15:22.052Z,85.60
2023-03-26T08:17:57.781Z,86.36
2023-03-26T08:21:17.738Z,85.79
2023-03-26T08:24:08.001Z,83.82
2023-03-26T08:26:49.068Z,83.23
2023-03-26T08:29:32.914Z,85.50
2023-03-26T08:32:01.861Z,85.78
2023-03-26T08:34:28.793Z,84.37
2023-03-26T08:36:55.711Z,82.52
2023-03-26T08:39:22.734Z,80.94
2023-03-26T08:41:55.202Z,79.10
2023-03-26T08:44:49.581Z,81.70
2023-03-26T08:48:06.621Z,82.07
2023-03-26T08:50:58.227Z,82.02
2023-03-26T08:54:03.356Z,82.44
2023-03-26T08:57:04.566Z,81.55
2023-03-26T08:59:42.299Z,82.12
2023-03-26T09:02:27.167Z,83.23
2023-03-26T09:05:52.612Z,82.73
2023-03-26T09:08:31.564Z,81.36
2023-03-26T09:11:20.310Z,81.12
2023-03-26T09:14:08.991Z,81.55
2023-03-26T09:17:28.804Z,82.69
2023-03-26T09:20:35.175Z,80.99
2023-03-26T09:23:34.772Z,78.59
2023-03-26T09:26:29.787Z,81.98
2023-03-26T09:29:35.012Z,78.21
2023-03-26T09:32:39.346Z,75.83
2023-03-26T09:35:18.101Z,76.86
2023-03-26T09:38:11.243Z,76.56
2023-03-26T09:41:09.816Z,77.33
2023-03-26T09:44:13.881Z,78.70
2023-03-26T09:46:56.235Z,71.97
2023-03-26T09:49:41.208Z,72.43
2023-03-26T09:52:46.547Z,73.39
2023-03-26T09:55:30.306Z,72.32
2023-03-26T09:58:26.073Z,73.61
2023-03-26T10:01:22.288Z,72.53
2023-03-26T10:04:10.499Z,70.15
2023-03-26T10:07:01.360Z,72.24
2023-03-26T10:10:12.707Z,76.56
2023-03-26T10:12:45.722Z,72.73
2023-03-26T10:15:54.377Z,73.45
2023-03-26T10:18:30.009Z,70.91
2023-03-26T10:21:28.505Z,68.75
2023-03-26T10:24:21.073Z,72.57
2023-03-26T10:27:10.386Z,76.39
2023-03-26T10:30:20.632Z,77.26
2023-03-26T10:33:08.064Z,79.49
2023-03-26T10:35:53.079Z,79.93
2023-03-26T10:39:37.203Z,82.69
2023-03-26T10:42:21.746Z,82.57
2023-03-26T10:45:25.577Z,85.34
2023-03-26T10:48:03.091Z,87.02
2023-03-26T10:51:06.587Z,88.08
2023-03-26T10:53:56.044Z,88.62
2023-03-26T10:56:40.041Z,89.44
2023-03-26T10:59:12.963Z,90.32
2023-03-26T11:01:54.745Z,89.39
2023-03-26T11:04:54.457Z,88.33
2023-03-26T11:07:27.033Z,88.98
2023-03-26T11:10:19.462Z,89.66
2023-03-26T11:13:08.934Z,90.32
2023-03-26T11:16:00.314Z,89.36
2023-03-26T11:18:32.701Z,89.28
2023-03-26T11:21:19.854Z,90.24
2023-03-26T11:24:06.509Z,89.54
2023-03-26T11:27:14.486Z,89.64
2023-03-26T11:30:14.847Z,90.45
2023-03-26T11:32:48.301Z,90.11
2023-03-26T11:35:40.667Z,90.82
2023-03-26T11:38:26.397Z,90.42
2023-03-26T11:40:57.348Z,90.51
2023-03-26T11:43:49.676Z,89.37
2023-03-26T11:46:20.987Z,89.85
2023-03-26T11:48:58.161Z,88.73
2023-03-26T11:51:34.189Z,89.03
2023-03-26T11:54:07.852Z,89.29
2023-03-26T11:57:05.174Z,88.95
2023-03-26T11:59:55.639Z,89.67
2023-03-26T12:02:37.784Z,89.79
2023-03-26T12:05:26.546Z,89.22
2023-03-26T12:07:59.745Z,88.31
2023-03-26T12:10:39.414Z,88.44
2023-03-26T12:13:44.751Z,86.13
2023-03-26T12:16:19.358Z,88.24
2023-03-26T12:19:03.865Z,86.40
2023-03-26T12:21:46.566Z,88.14
2023-03-26T12:24:35.206Z,86.82
2023-03-26T12:27:24.902Z,86.96
2023-03-26T12:30:00.402Z,86.53
2023-03-26T12:32:45.147Z,89.50
2023-03-26T12:35:30.158Z,89.15
2023-03-26T12:38:23.482Z,88.27
2023-03-26T12:44:44.671Z,87.62
2023-03-26T12:44:52.934Z,89.18
2023-03-26T12:47:57.154Z,87.59
2023-03-26T12:50:16.003Z,86.75
2023-03-26T12:52:49.486Z,88.15
2023-03-26T12:55:42.390Z,87.61
2023-03-26T12:58:51.353Z,85.92
2023-03-26T13:02:05.929Z,85.61
2023-03-26T13:05:05.635Z,87.78
2023-03-26T13:07:51.585Z,86.60
2023-03-26T13:10:50.775Z,87.41
2023-03-26T13:13:38.627Z,86.90
2023-03-26T13:16:42.542Z,87.44
2023-03-26T13:19:43.980Z,87.57
2023-03-26T13:22:46.180Z,87.70
2023-03-26T13:25:31.513Z,87.67
2023-03-26T13:28:26.260Z,85.52
2023-03-26T13:31:02.262Z,85.85
2023-03-26T13:33:44.808Z,85.78
2023-03-26T13:36:43.351Z,87.05
2023-03-26T13:39:49.980Z,85.38
2023-03-26T13:42:55.084Z,86.52
2023-03-26T13:45:56.337Z,87.50
2023-03-26T13:48:30.261Z,86.23
2023-03-26T13:51:40.683Z,85.85
2023-03-26T13:54:14.190Z,84.77
2023-03-26T13:56:50.499Z,84.21
2023-03-26T14:00:10.087Z,85.37
2023-03-26T14:02:45.541Z,85.16
2023-03-26T14:05:38.868Z,84.81
2023-03-26T14:08:37.834Z,84.08
2023-03-26T14:11:11.651Z,85.50
2023-03-26T14:13:51.935Z,84.04
2023-03-26T14:16:29.455Z,83.07
2023-03-26T14:19:30.883Z,84.08
2023-03-26T14:22:16.016Z,84.33
2023-03-26T14:25:08.244Z,84.59
2023-03-26T14:28:19.565Z,82.93
2023-03-26T14:31:14.111Z,80.47
2023-03-26T14:34:22.572Z,81.98
2023-03-26T14:36:59.107Z,82.26
2023-03-26T14:40:07.997Z,84.79
2023-03-26T14:42:43.064Z,84.86
2023-03-26T14:45:41.669Z,83.03
2023-03-26T14:49:02.240Z,84.82
2023-03-26T14:51:42.337Z,84.34
2023-03-26T14:54:15.986Z,82.19
2023-03-26T14:57:44.561Z,81.71
2023-03-26T15:01:03.908Z,84.71
2023-03-26T15:03:38.811Z,84.40
2023-03-26T15:06:30.200Z,83.83
2023-03-26T15:09:40.378Z,84.69
2023-03-26T15:12:33.260Z,85.05
2023-03-26T15:16:08.992Z,87.08
2023-03-26T15:19:14.356Z,87.83
2023-03-26T15:21:47.282Z,88.42
2023-03-26T15:24:35.309Z,88.10
2023-03-26T15:27:17.215Z,87.57
2023-03-26T15:30:26.970Z,88.33
2023-03-26T15:33:45.001Z,89.52
2023-03-26T15:36:58.774Z,89.32
2023-03-26T15:39:59.459Z,89.20
2023-03-26T15:42:36.093Z,87.30
2023-03-26T15:45:26.538Z,86.97
2023-03-26T15:48:01.229Z,88.90
2023-03-26T15:50:54.755Z,89.58
2023-03-26T15:54:04.832Z,90.50
2023-03-26T15:57:16.745Z,88.12
2023-03-26T16:00:15.393Z,90.00
2023-03-26T16:03:09.278Z,91.08
2023-03-26T16:06:02.156Z,91.48
2023-03-26T16:08:53.069Z,92.24
2023-03-26T16:11:49.759Z,92.21
2023-03-26T16:14:41.488Z,92.23
2023-03-26T16:17:23.342Z,90.93
2023-03-26T16:20:32.634Z,90.68
2023-03-26T16:23:04.561Z,90.74
2023-03-26T16:26:41.270Z,92.08
2023-03-26T16:29:14.380Z,90.19
2023-03-26T16:32:12.273Z,91.00
2023-03-26T16:35:00.233Z,91.01
2023-03-26T16:37:43.887Z,90.50
2023-03-26T16:40:16.797Z,90.57
2023-03-26T16:42:54.530Z,90.65
2023-03-26T16:45:54.684Z,91.17
2023-03-26T16:48:39.496Z,90.30
2023-03-26T16:51:26.191Z,90.43
2023-03-26T16:54:23.666Z,91.07
2023-03-26T16:57:30.694Z,91.29
2023-03-26T17:00:13.874Z,90.93
2023-03-26T17:03:37.720Z,92.15
2023-03-26T17:06:47.891Z,92.43
2023-03-26T17:09:44.065Z,93.22
2023-03-26T17:12:44.387Z,93.07
2023-03-26T17:15:36.402Z,93.23
2023-03-26T17:18:18.635Z,92.11
2023-03-26T17:21:01.055Z,91.92
2023-03-26T17:23:54.413Z,89.46
2023-03-26T17:26:28.840Z,90.46
2023-03-26T17:29:31.550Z,89.96
2023-03-26T17:32:11.530Z,88.85
2023-03-26T17:34:38.383Z,89.52
2023-03-26T17:37:11.879Z,90.63
2023-03-26T17:39:38.640Z,90.49
2023-03-26T17:42:32.985Z,91.39
2023-03-26T17:45:28.929Z,90.97
2023-03-26T17:48:20.542Z,89.21
2023-03-26T17:50:55.399Z,89.50
2023-03-26T17:53:31.328Z,90.57
2023-03-26T17:56:03.896Z,89.27
2023-03-26T17:58:50.364Z,90.31
2023-03-26T18:01:33.845Z,90.09
2023-03-26T18:04:05.987Z,89.25
2023-03-26T18:06:32.739Z,89.39
2023-03-26T18:09:09.830Z,90.06
2023-03-26T18:12:16.357Z,90.32
2023-03-26T18:15:01.130Z,89.39
2023-03-26T18:17:39.319Z,88.75
2023-03-26T18:20:07.345Z,89.26
2023-03-26T18:22:34.767Z,89.96
2023-03-26T18:25:04.068Z,88.39
2023-03-26T18:27:40.338Z,89.77
2023-03-26T18:30:23.428Z,89.80
2023-03-26T18:33:01.374Z,90.20
2023-03-26T18:35:42.202Z,85.94
2023-03-26T18:38:19.382Z,87.26
2023-03-26T18:41:06.193Z,86.29
2023-03-26T18:43:35.729Z,86.74
2023-03-26T18:46:14.428Z,87.76
2023-03-26T18:48:41.873Z,88.83
2023-03-26T18:51:08.913Z,88.58
2023-03-26T18:53:41.199Z,87.71
2023-03-26T18:56:27.366Z,88.83
2023-03-26T18:58:59.039Z,89.35
2023-03-26T19:01:32.288Z,88.52
2023-03-26T19:04:04.865Z,89.27
2023-03-26T19:06:38.337Z,87.97
2023-03-26T19:09:23.777Z,88.10
2023-03-26T19:12:14.275Z,86.58
2023-03-26T19:15:12.676Z,87.19
2023-03-26T19:17:48.442Z,86.17
2023-03-26T19:20:19.668Z,85.07
2023-03-26T19:22:48.383Z,86.27
2023-03-26T19:25:29.594Z,84.45
2023-03-26T19:27:57.557Z,85.46
2023-03-26T19:30:33.119Z,87.13
2023-03-26T19:33:13.852Z,84.88
2023-03-26T19:35:42.733Z,84.54
2023-03-26T19:38:26.013Z,84.84
2023-03-26T19:40:56.692Z,84.00
2023-03-26T19:43:27.171Z,81.92
2023-03-26T19:46:00.165Z,80.65
2023-03-26T19:48:46.113Z,83.40
2023-03-26T19:51:32.045Z,81.46
2023-03-26T19:54:03.033Z,81.65
2023-03-26T19:56:30.420Z,82.31
2023-03-26T19:58:59.235Z,81.69
2023-03-26T20:01:29.248Z,83.30
2023-03-26T20:04:06.848Z,82.01
2023-03-26T20:06:42.377Z,80.91
2023-03-26T20:09:16.299Z,81.39
2023-03-26T20:11:43.354Z,80.50
2023-03-26T20:14:25.830Z,82.55
2023-03-26T20:16:53.598Z,82.94
2023-03-26T20:19:20.698Z,82.60
2023-03-26T20:21:47.619Z,83.54
2023-03-26T20:24:17.555Z,82.59
2023-03-26T20:26:46.334Z,81.83
2023-03-26T20:29:14.517Z,83.55
2023-03-26T20:31:43.325Z,83.66
2023-03-26T20:34:16.500Z,82.21
2023-03-26T20:36:44.037Z,83.02
2023-03-26T20:39:11.206Z,81.09
2023-03-26T20:41:47.225Z,81.79
2023-03-26T20:44:18.652Z,81.76
2023-03-26T20:46:48.595Z,80.91
2023-03-26T20:49:16.022Z,81.01
2023-03-26T20:51:43.686Z,81.36
2023-03-26T20:54:21.263Z,80.82
2023-03-26T20:56:48.874Z,81.12
2023-03-26T20:59:26.888Z,80.38
2023-03-26T21:01:56.632Z,81.20
2023-03-26T21:04:24.725Z,81.38
2023-03-26T21:06:53.351Z,81.09
2023-03-26T21:09:24.105Z,80.70
2023-03-26T21:12:16.750Z,81.74
2023-03-26T21:14:44.266Z,82.79
2023-03-26T21:17:18.920Z,82.86
2023-03-26T21:19:47.219Z,82.83
2023-03-26T21:22:27.711Z,82.67
2023-03-26T21:25:05.853Z,82.12
2023-03-26T21:28:07.203Z,82.62
2023-03-26T21:30:34.817Z,83.62
2023-03-26T21:33:02.159Z,83.48
2023-03-26T21:35:29.880Z,83.46
2023-03-26T21:37:57.695Z,82.84
2023-03-26T21:40:24.697Z,82.99
2023-03-26T21:42:54.259Z,82.88
2023-03-26T21:45:22.140Z,81.99
2023-03-26T21:47:49.847Z,81.71
2023-03-26T21:50:20.931Z,82.00
2023-03-26T21:52:50.902Z,83.31
2023-03-26T21:55:23.426Z,82.51
2023-03-26T21:58:31.517Z,82.73
2023-03-26T22:01:38.160Z,82.75
2023-03-26T22:04:22.222Z,83.94
2023-03-26T22:07:04.326Z,82.88
2023-03-26T22:09:36.252Z,81.19
2023-03-26T22:12:05.490Z,82.73
2023-03-26T22:14:33.620Z,81.90
2023-03-26T22:17:00.489Z,81.30
2023-03-26T22:19:28.568Z,81.60
2023-03-26T22:21:58.164Z,81.68
2023-03-26T22:24:25.086Z,80.48
2023-03-26T22:26:51.986Z,81.04
2023-03-26T22:29:18.948Z,80.67
2023-03-26T22:31:46.458Z,81.59
2023-03-26T22:34:13.522Z,81.79
2023-03-26T22:36:40.642Z,80.71
2023-03-26T22:39:07.705Z,80.79
2023-03-26T22:41:34.651Z,80.95
2023-03-26T22:44:12.905Z,80.14
2023-03-26T22:46:49.265Z,80.50
2023-03-26T22:49:17.880Z,82.01
2023-03-26T22:51:44.722Z,80.64
2023-03-26T22:54:11.608Z,80.48
2023-03-26T22:56:38.526Z,80.74
2023-03-26T22:59:06.960Z,80.07
2023-03-26T23:01:34.384Z,81.56
2023-03-26T23:04:01.573Z,79.24
2023-03-26T23:06:28.538Z,80.90
2023-03-26T23:08:57.018Z,79.62
2023-03-26T23:11:23.984Z,80.70
2023-03-26T23:13:51.223Z,80.21
2023-03-26T23:16:21.514Z,80.82
2023-03-26T23:18:49.006Z,79.98
2023-03-26T23:21:19.520Z,80.08
2023-03-26T23:23:48.322Z,78.28
2023-03-26T23:26:15.601Z,79.32
2023-03-26T23:28:43.182Z,79.19
2023-03-26T23:31:12.270Z,79.42
2023-03-26T23:33:45.769Z,79.29
2023-03-26T23:36:17.582Z,79.51
2023-03-26T23:38:47.595Z,78.86
2023-03-26T23:41:21.395Z,79.16
2023-03-26T23:43:56.402Z,79.78
2023-03-26T23:46:34.632Z,79.08
2023-03-26T23:49:03.367Z,79.52
2023-03-26T23:51:31.929Z,79.77
2023-03-26T23:54:00.301Z,79.10
2023-03-26T23:56:30.291Z,80.10
2023-03-26T23:58:59.116Z,77.92
